sensor_id;sensor_type;location;lat;lon;timestamp;P1;durP1;ratioP1;P2;durP2;ratioP2
76608;SDS011;65928;53.936;27.540;2024-02-14T00:02:05;10.32;;;6.72;;
76608;SDS011;65928;53.936;27.540;2024-02-14T00:04:31;14.02;;;8.13;;
76608;SDS011;65928;53.936;27.540;2024-02-14T00:06:56;14.27;;;9.02;;
76608;SDS011;65928;53.936;27.540;2024-02-14T00:09:22;12.27;;;7.13;;
76608;SDS011;65928;53.936;27.540;2024-02-14T00:11:47;13.88;;;9.18;;
76608;SDS011;65928;53.936;27.540;2024-02-14T00:14:12;14.07;;;8.50;;
76608;SDS011;65928;53.936;27.540;2024-02-14T00:16:38;13.82;;;8.30;;
76608;SDS011;65928;53.936;27.540;2024-02-14T00:19:04;13.15;;;6.43;;
76608;SDS011;65928;53.936;27.540;2024-02-14T00:21:30;13.80;;;7.40;;
76608;SDS011;65928;53.936;27.540;2024-02-14T00:23:56;13.63;;;8.18;;
76608;SDS011;65928;53.936;27.540;2024-02-14T00:26:23;14.07;;;8.57;;
76608;SDS011;65928;53.936;27.540;2024-02-14T00:28:49;9.77;;;6.15;;
76608;SDS011;65928;53.936;27.540;2024-02-14T00:31:15;12.07;;;7.32;;
76608;SDS011;65928;53.936;27.540;2024-02-14T00:33:41;11.82;;;7.38;;
76608;SDS011;65928;53.936;27.540;2024-02-14T00:36:06;12.35;;;5.95;;
76608;SDS011;65928;53.936;27.540;2024-02-14T00:38:32;12.35;;;7.15;;
76608;SDS011;65928;53.936;27.540;2024-02-14T00:40:57;11.05;;;5.45;;
76608;SDS011;65928;53.936;27.540;2024-02-14T00:43:22;12.40;;;6.30;;
76608;SDS011;65928;53.936;27.540;2024-02-14T00:45:48;9.73;;;6.80;;
76608;SDS011;65928;53.936;27.540;2024-02-14T00:48:13;6.78;;;4.88;;
76608;SDS011;65928;53.936;27.540;2024-02-14T00:50:39;11.65;;;6.72;;
76608;SDS011;65928;53.936;27.540;2024-02-14T00:53:04;10.77;;;6.97;;
76608;SDS011;65928;53.936;27.540;2024-02-14T00:55:29;7.00;;;4.78;;
76608;SDS011;65928;53.936;27.540;2024-02-14T00:57:55;12.20;;;6.53;;
76608;SDS011;65928;53.936;27.540;2024-02-14T01:00:20;11.38;;;6.65;;
76608;SDS011;65928;53.936;27.540;2024-02-14T01:02:46;10.93;;;6.90;;
76608;SDS011;65928;53.936;27.540;2024-02-14T01:05:11;10.30;;;6.30;;
76608;SDS011;65928;53.936;27.540;2024-02-14T01:07:36;11.15;;;6.82;;
76608;SDS011;65928;53.936;27.540;2024-02-14T01:10:02;11.43;;;6.30;;
76608;SDS011;65928;53.936;27.540;2024-02-14T01:12:28;10.32;;;6.45;;
76608;SDS011;65928;53.936;27.540;2024-02-14T01:14:54;12.57;;;6.45;;
76608;SDS011;65928;53.936;27.540;2024-02-14T01:17:20;9.18;;;5.13;;
76608;SDS011;65928;53.936;27.540;2024-02-14T01:19:45;9.75;;;5.50;;
76608;SDS011;65928;53.936;27.540;2024-02-14T01:22:11;9.82;;;6.45;;
76608;SDS011;65928;53.936;27.540;2024-02-14T01:24:36;8.65;;;5.25;;
76608;SDS011;65928;53.936;27.540;2024-02-14T01:27:02;10.63;;;6.70;;
76608;SDS011;65928;53.936;27.540;2024-02-14T01:29:28;10.13;;;6.47;;
76608;SDS011;65928;53.936;27.540;2024-02-14T01:31:54;12.35;;;7.53;;
76608;SDS011;65928;53.936;27.540;2024-02-14T01:34:19;9.88;;;6.55;;
76608;SDS011;65928;53.936;27.540;2024-02-14T01:36:45;12.07;;;5.88;;
76608;SDS011;65928;53.936;27.540;2024-02-14T01:39:11;14.52;;;7.93;;
76608;SDS011;65928;53.936;27.540;2024-02-14T01:41:37;13.70;;;8.00;;
76608;SDS011;65928;53.936;27.540;2024-02-14T01:44:03;10.73;;;6.32;;
76608;SDS011;65928;53.936;27.540;2024-02-14T01:46:29;9.73;;;5.10;;
76608;SDS011;65928;53.936;27.540;2024-02-14T01:48:54;14.50;;;8.45;;
76608;SDS011;65928;53.936;27.540;2024-02-14T01:51:20;14.43;;;7.53;;
76608;SDS011;65928;53.936;27.540;2024-02-14T01:53:49;11.18;;;7.10;;
76608;SDS011;65928;53.936;27.540;2024-02-14T01:56:14;14.45;;;7.70;;
76608;SDS011;65928;53.936;27.540;2024-02-14T01:58:41;15.55;;;8.82;;
76608;SDS011;65928;53.936;27.540;2024-02-14T02:01:07;17.95;;;10.07;;
76608;SDS011;65928;53.936;27.540;2024-02-14T02:03:35;18.05;;;9.13;;
76608;SDS011;65928;53.936;27.540;2024-02-14T02:06:02;16.40;;;9.43;;
76608;SDS011;65928;53.936;27.540;2024-02-14T02:08:28;17.65;;;9.80;;
76608;SDS011;65928;53.936;27.540;2024-02-14T02:10:54;18.50;;;9.30;;
76608;SDS011;65928;53.936;27.540;2024-02-14T02:13:19;13.52;;;7.80;;
76608;SDS011;65928;53.936;27.540;2024-02-14T02:15:46;14.75;;;8.88;;
76608;SDS011;65928;53.936;27.540;2024-02-14T02:18:11;13.45;;;7.90;;
76608;SDS011;65928;53.936;27.540;2024-02-14T02:20:38;13.80;;;8.43;;
76608;SDS011;65928;53.936;27.540;2024-02-14T02:23:03;13.18;;;7.57;;
76608;SDS011;65928;53.936;27.540;2024-02-14T02:25:30;15.73;;;8.25;;
76608;SDS011;65928;53.936;27.540;2024-02-14T02:27:55;13.45;;;7.50;;
76608;SDS011;65928;53.936;27.540;2024-02-14T02:30:23;13.98;;;8.00;;
76608;SDS011;65928;53.936;27.540;2024-02-14T02:32:52;10.77;;;6.45;;
76608;SDS011;65928;53.936;27.540;2024-02-14T02:35:17;11.30;;;6.00;;
76608;SDS011;65928;53.936;27.540;2024-02-14T02:37:46;9.63;;;5.75;;
76608;SDS011;65928;53.936;27.540;2024-02-14T02:40:13;12.50;;;6.15;;
76608;SDS011;65928;53.936;27.540;2024-02-14T02:42:39;7.88;;;5.20;;
76608;SDS011;65928;53.936;27.540;2024-02-14T02:45:05;10.05;;;5.68;;
76608;SDS011;65928;53.936;27.540;2024-02-14T02:47:31;11.00;;;6.82;;
76608;SDS011;65928;53.936;27.540;2024-02-14T02:49:57;11.23;;;7.00;;
76608;SDS011;65928;53.936;27.540;2024-02-14T02:52:26;12.82;;;6.90;;
76608;SDS011;65928;53.936;27.540;2024-02-14T02:54:52;7.75;;;5.25;;
76608;SDS011;65928;53.936;27.540;2024-02-14T02:57:18;10.73;;;7.20;;
76608;SDS011;65928;53.936;27.540;2024-02-14T02:59:44;10.30;;;6.35;;
76608;SDS011;65928;53.936;27.540;2024-02-14T03:02:11;12.43;;;7.05;;
76608;SDS011;65928;53.936;27.540;2024-02-14T03:04:37;10.65;;;6.30;;
76608;SDS011;65928;53.936;27.540;2024-02-14T03:07:03;9.25;;;5.97;;
76608;SDS011;65928;53.936;27.540;2024-02-14T03:09:31;11.10;;;7.28;;
76608;SDS011;65928;53.936;27.540;2024-02-14T03:11:57;10.52;;;5.82;;
76608;SDS011;65928;53.936;27.540;2024-02-14T03:14:23;11.90;;;6.85;;
76608;SDS011;65928;53.936;27.540;2024-02-14T03:16:48;9.57;;;5.10;;
76608;SDS011;65928;53.936;27.540;2024-02-14T03:19:13;11.15;;;6.82;;
76608;SDS011;65928;53.936;27.540;2024-02-14T03:21:39;11.00;;;6.07;;
76608;SDS011;65928;53.936;27.540;2024-02-14T03:24:04;8.73;;;4.35;;
76608;SDS011;65928;53.936;27.540;2024-02-14T03:26:30;9.23;;;5.35;;
76608;SDS011;65928;53.936;27.540;2024-02-14T03:29:03;10.65;;;6.10;;
76608;SDS011;65928;53.936;27.540;2024-02-14T03:31:31;9.63;;;6.00;;
76608;SDS011;65928;53.936;27.540;2024-02-14T03:33:56;11.15;;;6.43;;
76608;SDS011;65928;53.936;27.540;2024-02-14T03:36:22;10.82;;;6.30;;
76608;SDS011;65928;53.936;27.540;2024-02-14T03:38:49;10.77;;;5.65;;
76608;SDS011;65928;53.936;27.540;2024-02-14T03:41:15;8.70;;;5.88;;
76608;SDS011;65928;53.936;27.540;2024-02-14T03:43:40;10.05;;;6.60;;
76608;SDS011;65928;53.936;27.540;2024-02-14T03:46:05;23.08;;;12.88;;
76608;SDS011;65928;53.936;27.540;2024-02-14T03:48:31;11.48;;;8.00;;
76608;SDS011;65928;53.936;27.540;2024-02-14T03:50:56;11.23;;;6.20;;
76608;SDS011;65928;53.936;27.540;2024-02-14T03:53:22;9.90;;;6.63;;
76608;SDS011;65928;53.936;27.540;2024-02-14T03:55:48;16.02;;;10.13;;
76608;SDS011;65928;53.936;27.540;2024-02-14T03:58:14;11.20;;;6.40;;
76608;SDS011;65928;53.936;27.540;2024-02-14T04:00:42;5.90;;;4.30;;
76608;SDS011;65928;53.936;27.540;2024-02-14T04:03:11;16.42;;;9.98;;
76608;SDS011;65928;53.936;27.540;2024-02-14T04:05:37;5.88;;;4.25;;
76608;SDS011;65928;53.936;27.540;2024-02-14T04:08:03;14.90;;;8.50;;
76608;SDS011;65928;53.936;27.540;2024-02-14T04:10:28;12.18;;;6.72;;
76608;SDS011;65928;53.936;27.540;2024-02-14T04:12:53;15.05;;;9.75;;
76608;SDS011;65928;53.936;27.540;2024-02-14T04:15:19;10.27;;;6.47;;
76608;SDS011;65928;53.936;27.540;2024-02-14T04:17:44;9.57;;;6.43;;
76608;SDS011;65928;53.936;27.540;2024-02-14T04:20:10;7.70;;;4.68;;
76608;SDS011;65928;53.936;27.540;2024-02-14T04:22:35;7.63;;;5.07;;
76608;SDS011;65928;53.936;27.540;2024-02-14T04:25:00;10.32;;;6.43;;
76608;SDS011;65928;53.936;27.540;2024-02-14T04:27:27;12.68;;;7.07;;
76608;SDS011;65928;53.936;27.540;2024-02-14T04:29:53;16.60;;;9.82;;
76608;SDS011;65928;53.936;27.540;2024-02-14T04:32:18;19.05;;;11.15;;
76608;SDS011;65928;53.936;27.540;2024-02-14T04:34:44;20.52;;;11.48;;
76608;SDS011;65928;53.936;27.540;2024-02-14T04:37:10;31.33;;;15.77;;
76608;SDS011;65928;53.936;27.540;2024-02-14T04:39:38;26.77;;;15.15;;
76608;SDS011;65928;53.936;27.540;2024-02-14T04:42:07;13.32;;;8.07;;
76608;SDS011;65928;53.936;27.540;2024-02-14T04:44:32;10.40;;;5.82;;
76608;SDS011;65928;53.936;27.540;2024-02-14T04:46:59;9.70;;;6.07;;
76608;SDS011;65928;53.936;27.540;2024-02-14T04:49:24;11.07;;;6.15;;
76608;SDS011;65928;53.936;27.540;2024-02-14T04:51:53;14.75;;;8.95;;
76608;SDS011;65928;53.936;27.540;2024-02-14T04:54:19;14.20;;;8.48;;
76608;SDS011;65928;53.936;27.540;2024-02-14T04:56:44;13.30;;;8.27;;
76608;SDS011;65928;53.936;27.540;2024-02-14T04:59:13;5.68;;;3.92;;
76608;SDS011;65928;53.936;27.540;2024-02-14T05:01:38;10.30;;;6.25;;
76608;SDS011;65928;53.936;27.540;2024-02-14T05:04:06;12.82;;;8.65;;
76608;SDS011;65928;53.936;27.540;2024-02-14T05:06:32;13.45;;;7.43;;
76608;SDS011;65928;53.936;27.540;2024-02-14T05:08:58;9.75;;;6.03;;
76608;SDS011;65928;53.936;27.540;2024-02-14T05:11:23;7.72;;;5.28;;
76608;SDS011;65928;53.936;27.540;2024-02-14T05:13:48;6.22;;;3.35;;
76608;SDS011;65928;53.936;27.540;2024-02-14T05:16:17;6.90;;;4.43;;
76608;SDS011;65928;53.936;27.540;2024-02-14T05:18:45;6.45;;;4.50;;
76608;SDS011;65928;53.936;27.540;2024-02-14T05:21:11;11.05;;;5.85;;
76608;SDS011;65928;53.936;27.540;2024-02-14T05:23:36;5.72;;;2.95;;
76608;SDS011;65928;53.936;27.540;2024-02-14T05:26:02;5.25;;;3.40;;
76608;SDS011;65928;53.936;27.540;2024-02-14T05:28:28;9.13;;;5.88;;
76608;SDS011;65928;53.936;27.540;2024-02-14T05:30:54;4.90;;;3.17;;
76608;SDS011;65928;53.936;27.540;2024-02-14T05:33:20;4.72;;;2.83;;
76608;SDS011;65928;53.936;27.540;2024-02-14T05:35:50;5.38;;;2.75;;
76608;SDS011;65928;53.936;27.540;2024-02-14T05:38:16;6.28;;;3.67;;
76608;SDS011;65928;53.936;27.540;2024-02-14T05:40:44;7.20;;;4.40;;
76608;SDS011;65928;53.936;27.540;2024-02-14T05:43:13;4.25;;;2.85;;
76608;SDS011;65928;53.936;27.540;2024-02-14T05:45:39;5.10;;;3.17;;
76608;SDS011;65928;53.936;27.540;2024-02-14T05:48:04;6.22;;;3.42;;
76608;SDS011;65928;53.936;27.540;2024-02-14T05:50:30;4.85;;;2.72;;
76608;SDS011;65928;53.936;27.540;2024-02-14T05:52:55;4.13;;;2.85;;
76608;SDS011;65928;53.936;27.540;2024-02-14T05:55:23;5.72;;;3.60;;
76608;SDS011;65928;53.936;27.540;2024-02-14T05:57:50;6.72;;;4.25;;
76608;SDS011;65928;53.936;27.540;2024-02-14T06:00:17;4.78;;;3.00;;
76608;SDS011;65928;53.936;27.540;2024-02-14T06:02:43;4.45;;;2.88;;
76608;SDS011;65928;53.936;27.540;2024-02-14T06:05:09;6.68;;;3.45;;
76608;SDS011;65928;53.936;27.540;2024-02-14T06:07:38;7.00;;;3.50;;
76608;SDS011;65928;53.936;27.540;2024-02-14T06:10:04;4.35;;;2.92;;
76608;SDS011;65928;53.936;27.540;2024-02-14T06:12:31;5.95;;;3.80;;
76608;SDS011;65928;53.936;27.540;2024-02-14T06:14:57;4.10;;;2.47;;
76608;SDS011;65928;53.936;27.540;2024-02-14T06:17:22;5.25;;;3.47;;
76608;SDS011;65928;53.936;27.540;2024-02-14T06:19:47;4.65;;;2.75;;
76608;SDS011;65928;53.936;27.540;2024-02-14T06:22:13;5.55;;;3.53;;
76608;SDS011;65928;53.936;27.540;2024-02-14T06:24:38;3.38;;;2.10;;
76608;SDS011;65928;53.936;27.540;2024-02-14T06:27:04;4.68;;;2.78;;
76608;SDS011;65928;53.936;27.540;2024-02-14T06:29:29;4.18;;;2.67;;
76608;SDS011;65928;53.936;27.540;2024-02-14T06:31:55;4.80;;;2.90;;
76608;SDS011;65928;53.936;27.540;2024-02-14T06:34:20;3.88;;;2.08;;
76608;SDS011;65928;53.936;27.540;2024-02-14T06:36:46;5.00;;;2.63;;
76608;SDS011;65928;53.936;27.540;2024-02-14T06:39:11;5.38;;;2.65;;
76608;SDS011;65928;53.936;27.540;2024-02-14T06:41:37;4.95;;;2.78;;
76608;SDS011;65928;53.936;27.540;2024-02-14T06:44:03;4.28;;;2.78;;
76608;SDS011;65928;53.936;27.540;2024-02-14T06:46:29;3.95;;;2.28;;
76608;SDS011;65928;53.936;27.540;2024-02-14T06:48:55;4.28;;;2.35;;
76608;SDS011;65928;53.936;27.540;2024-02-14T06:51:21;6.00;;;2.50;;
76608;SDS011;65928;53.936;27.540;2024-02-14T06:53:47;3.60;;;2.33;;
76608;SDS011;65928;53.936;27.540;2024-02-14T06:56:12;4.35;;;2.53;;
76608;SDS011;65928;53.936;27.540;2024-02-14T06:58:38;5.70;;;3.45;;
76608;SDS011;65928;53.936;27.540;2024-02-14T07:01:03;4.63;;;2.80;;
76608;SDS011;65928;53.936;27.540;2024-02-14T07:03:29;3.40;;;2.00;;
76608;SDS011;65928;53.936;27.540;2024-02-14T07:05:54;5.28;;;2.85;;
76608;SDS011;65928;53.936;27.540;2024-02-14T07:08:19;7.03;;;3.75;;
76608;SDS011;65928;53.936;27.540;2024-02-14T07:10:45;6.35;;;3.33;;
76608;SDS011;65928;53.936;27.540;2024-02-14T07:13:10;5.45;;;3.38;;
76608;SDS011;65928;53.936;27.540;2024-02-14T07:15:35;5.57;;;3.05;;
76608;SDS011;65928;53.936;27.540;2024-02-14T07:18:01;6.78;;;4.07;;
76608;SDS011;65928;53.936;27.540;2024-02-14T07:20:27;6.85;;;3.78;;
76608;SDS011;65928;53.936;27.540;2024-02-14T07:22:52;5.68;;;3.63;;
76608;SDS011;65928;53.936;27.540;2024-02-14T07:25:21;4.85;;;3.10;;
76608;SDS011;65928;53.936;27.540;2024-02-14T07:27:46;5.95;;;4.20;;
76608;SDS011;65928;53.936;27.540;2024-02-14T07:30:14;5.38;;;3.35;;
76608;SDS011;65928;53.936;27.540;2024-02-14T07:32:40;8.00;;;5.95;;
76608;SDS011;65928;53.936;27.540;2024-02-14T07:35:05;8.68;;;5.43;;
76608;SDS011;65928;53.936;27.540;2024-02-14T07:37:31;7.18;;;3.90;;
76608;SDS011;65928;53.936;27.540;2024-02-14T07:39:57;7.57;;;4.78;;
76608;SDS011;65928;53.936;27.540;2024-02-14T07:42:23;8.57;;;4.80;;
76608;SDS011;65928;53.936;27.540;2024-02-14T07:44:48;6.95;;;4.35;;
76608;SDS011;65928;53.936;27.540;2024-02-14T07:47:14;6.65;;;3.55;;
76608;SDS011;65928;53.936;27.540;2024-02-14T07:49:39;6.75;;;4.07;;
76608;SDS011;65928;53.936;27.540;2024-02-14T07:52:05;6.68;;;3.95;;
76608;SDS011;65928;53.936;27.540;2024-02-14T07:54:31;7.32;;;3.47;;
76608;SDS011;65928;53.936;27.540;2024-02-14T07:56:56;7.97;;;4.85;;
76608;SDS011;65928;53.936;27.540;2024-02-14T07:59:21;9.73;;;6.10;;
76608;SDS011;65928;53.936;27.540;2024-02-14T08:01:47;5.00;;;3.40;;
76608;SDS011;65928;53.936;27.540;2024-02-14T08:04:12;7.47;;;4.47;;
76608;SDS011;65928;53.936;27.540;2024-02-14T08:06:38;7.13;;;3.83;;
76608;SDS011;65928;53.936;27.540;2024-02-14T08:09:03;5.90;;;3.72;;
76608;SDS011;65928;53.936;27.540;2024-02-14T08:11:31;8.43;;;4.90;;
76608;SDS011;65928;53.936;27.540;2024-02-14T08:13:57;5.10;;;3.38;;
76608;SDS011;65928;53.936;27.540;2024-02-14T08:16:23;7.32;;;3.83;;
76608;SDS011;65928;53.936;27.540;2024-02-14T08:18:49;7.28;;;4.93;;
76608;SDS011;65928;53.936;27.540;2024-02-14T08:21:15;5.80;;;3.08;;
76608;SDS011;65928;53.936;27.540;2024-02-14T08:23:41;7.45;;;3.85;;
76608;SDS011;65928;53.936;27.540;2024-02-14T08:26:07;8.77;;;4.90;;
76608;SDS011;65928;53.936;27.540;2024-02-14T08:28:36;8.05;;;4.35;;
76608;SDS011;65928;53.936;27.540;2024-02-14T08:31:01;8.27;;;4.85;;
76608;SDS011;65928;53.936;27.540;2024-02-14T08:33:27;7.90;;;4.47;;
76608;SDS011;65928;53.936;27.540;2024-02-14T08:35:52;9.75;;;6.05;;
76608;SDS011;65928;53.936;27.540;2024-02-14T08:38:22;13.40;;;7.80;;
76608;SDS011;65928;53.936;27.540;2024-02-14T08:40:47;13.50;;;7.57;;
76608;SDS011;65928;53.936;27.540;2024-02-14T08:43:12;9.27;;;5.55;;
76608;SDS011;65928;53.936;27.540;2024-02-14T08:45:38;11.55;;;7.65;;
76608;SDS011;65928;53.936;27.540;2024-02-14T08:48:04;12.30;;;8.15;;
76608;SDS011;65928;53.936;27.540;2024-02-14T08:50:30;12.57;;;7.95;;
76608;SDS011;65928;53.936;27.540;2024-02-14T08:52:55;10.00;;;5.97;;
76608;SDS011;65928;53.936;27.540;2024-02-14T08:55:21;17.63;;;6.95;;
76608;SDS011;65928;53.936;27.540;2024-02-14T08:57:46;12.20;;;7.70;;
76608;SDS011;65928;53.936;27.540;2024-02-14T09:00:15;14.93;;;9.18;;
76608;SDS011;65928;53.936;27.540;2024-02-14T09:02:44;13.80;;;6.88;;
76608;SDS011;65928;53.936;27.540;2024-02-14T09:05:11;11.95;;;7.43;;
76608;SDS011;65928;53.936;27.540;2024-02-14T09:07:37;9.80;;;5.97;;
76608;SDS011;65928;53.936;27.540;2024-02-14T09:10:03;10.63;;;5.95;;
76608;SDS011;65928;53.936;27.540;2024-02-14T09:12:29;10.57;;;5.80;;
76608;SDS011;65928;53.936;27.540;2024-02-14T09:14:54;9.25;;;4.78;;
76608;SDS011;65928;53.936;27.540;2024-02-14T09:17:21;11.70;;;6.85;;
76608;SDS011;65928;53.936;27.540;2024-02-14T09:19:47;10.93;;;5.82;;
76608;SDS011;65928;53.936;27.540;2024-02-14T09:22:13;13.35;;;8.80;;
76608;SDS011;65928;53.936;27.540;2024-02-14T09:24:43;13.02;;;7.95;;
76608;SDS011;65928;53.936;27.540;2024-02-14T09:27:08;18.00;;;11.43;;
76608;SDS011;65928;53.936;27.540;2024-02-14T09:29:34;12.85;;;8.80;;
76608;SDS011;65928;53.936;27.540;2024-02-14T09:32:01;22.30;;;14.90;;
76608;SDS011;65928;53.936;27.540;2024-02-14T09:34:28;16.20;;;10.20;;
76608;SDS011;65928;53.936;27.540;2024-02-14T09:36:54;17.15;;;11.15;;
76608;SDS011;65928;53.936;27.540;2024-02-14T09:39:21;12.23;;;7.72;;
76608;SDS011;65928;53.936;27.540;2024-02-14T09:41:51;11.70;;;8.43;;
76608;SDS011;65928;53.936;27.540;2024-02-14T09:44:20;12.82;;;8.73;;
76608;SDS011;65928;53.936;27.540;2024-02-14T09:46:49;9.82;;;6.47;;
76608;SDS011;65928;53.936;27.540;2024-02-14T09:49:14;9.80;;;7.45;;
76608;SDS011;65928;53.936;27.540;2024-02-14T09:51:42;7.10;;;4.85;;
76608;SDS011;65928;53.936;27.540;2024-02-14T09:54:09;7.57;;;5.38;;
76608;SDS011;65928;53.936;27.540;2024-02-14T09:56:35;6.40;;;3.67;;
76608;SDS011;65928;53.936;27.540;2024-02-14T09:59:01;6.30;;;3.88;;
76608;SDS011;65928;53.936;27.540;2024-02-14T10:01:27;8.73;;;4.22;;
76608;SDS011;65928;53.936;27.540;2024-02-14T10:03:53;5.75;;;3.15;;
76608;SDS011;65928;53.936;27.540;2024-02-14T10:06:19;5.97;;;4.43;;
76608;SDS011;65928;53.936;27.540;2024-02-14T10:08:46;5.53;;;3.50;;
76608;SDS011;65928;53.936;27.540;2024-02-14T10:11:12;7.00;;;3.90;;
76608;SDS011;65928;53.936;27.540;2024-02-14T10:13:39;4.35;;;2.88;;
76608;SDS011;65928;53.936;27.540;2024-02-14T10:16:05;5.30;;;3.60;;
76608;SDS011;65928;53.936;27.540;2024-02-14T10:18:32;7.30;;;3.97;;
76608;SDS011;65928;53.936;27.540;2024-02-14T10:20:58;5.63;;;3.38;;
76608;SDS011;65928;53.936;27.540;2024-02-14T10:23:23;3.85;;;2.08;;
76608;SDS011;65928;53.936;27.540;2024-02-14T10:25:56;4.28;;;2.22;;
76608;SDS011;65928;53.936;27.540;2024-02-14T10:28:22;3.90;;;3.05;;
76608;SDS011;65928;53.936;27.540;2024-02-14T10:30:48;7.63;;;4.15;;
76608;SDS011;65928;53.936;27.540;2024-02-14T10:33:16;11.45;;;7.03;;
76608;SDS011;65928;53.936;27.540;2024-02-14T10:35:42;7.10;;;5.40;;
76608;SDS011;65928;53.936;27.540;2024-02-14T10:38:08;10.75;;;6.82;;
76608;SDS011;65928;53.936;27.540;2024-02-14T10:40:35;5.28;;;3.58;;
76608;SDS011;65928;53.936;27.540;2024-02-14T10:43:03;5.80;;;4.03;;
76608;SDS011;65928;53.936;27.540;2024-02-14T10:45:30;8.90;;;6.15;;
76608;SDS011;65928;53.936;27.540;2024-02-14T10:47:56;6.82;;;4.53;;
76608;SDS011;65928;53.936;27.540;2024-02-14T10:50:22;5.88;;;3.78;;
76608;SDS011;65928;53.936;27.540;2024-02-14T10:52:49;5.60;;;4.38;;
76608;SDS011;65928;53.936;27.540;2024-02-14T10:55:16;5.00;;;3.53;;
76608;SDS011;65928;53.936;27.540;2024-02-14T10:57:43;6.40;;;4.22;;
76608;SDS011;65928;53.936;27.540;2024-02-14T11:00:10;6.20;;;4.13;;
76608;SDS011;65928;53.936;27.540;2024-02-14T11:02:39;4.50;;;3.42;;
76608;SDS011;65928;53.936;27.540;2024-02-14T11:05:05;4.60;;;3.80;;
76608;SDS011;65928;53.936;27.540;2024-02-14T11:07:32;8.18;;;5.47;;
76608;SDS011;65928;53.936;27.540;2024-02-14T11:10:01;4.55;;;3.35;;
76608;SDS011;65928;53.936;27.540;2024-02-14T11:12:33;5.07;;;3.30;;
76608;SDS011;65928;53.936;27.540;2024-02-14T11:15:01;7.68;;;4.80;;
76608;SDS011;65928;53.936;27.540;2024-02-14T11:17:33;5.53;;;3.00;;
76608;SDS011;65928;53.936;27.540;2024-02-14T11:19:59;4.60;;;2.40;;
76608;SDS011;65928;53.936;27.540;2024-02-14T11:22:24;5.43;;;3.60;;
76608;SDS011;65928;53.936;27.540;2024-02-14T11:24:51;3.65;;;2.78;;
76608;SDS011;65928;53.936;27.540;2024-02-14T11:27:18;3.63;;;2.20;;
76608;SDS011;65928;53.936;27.540;2024-02-14T11:29:53;3.90;;;2.10;;
76608;SDS011;65928;53.936;27.540;2024-02-14T11:32:18;4.70;;;1.90;;
76608;SDS011;65928;53.936;27.540;2024-02-14T11:34:53;5.20;;;3.22;;
76608;SDS011;65928;53.936;27.540;2024-02-14T11:37:20;3.92;;;2.47;;
76608;SDS011;65928;53.936;27.540;2024-02-14T11:39:46;4.93;;;3.10;;
76608;SDS011;65928;53.936;27.540;2024-02-14T11:42:11;7.18;;;3.80;;
76608;SDS011;65928;53.936;27.540;2024-02-14T11:44:40;4.78;;;2.25;;
76608;SDS011;65928;53.936;27.540;2024-02-14T11:47:08;3.33;;;1.95;;
76608;SDS011;65928;53.936;27.540;2024-02-14T11:49:35;3.55;;;2.00;;
76608;SDS011;65928;53.936;27.540;2024-02-14T11:52:01;3.47;;;1.98;;
76608;SDS011;65928;53.936;27.540;2024-02-14T11:54:26;3.53;;;2.33;;
76608;SDS011;65928;53.936;27.540;2024-02-14T11:56:51;8.65;;;4.15;;
76608;SDS011;65928;53.936;27.540;2024-02-14T11:59:17;16.73;;;7.57;;
76608;SDS011;65928;53.936;27.540;2024-02-14T12:01:44;11.13;;;6.45;;
76608;SDS011;65928;53.936;27.540;2024-02-14T12:04:11;7.15;;;4.18;;
76608;SDS011;65928;53.936;27.540;2024-02-14T12:06:38;7.93;;;4.30;;
76608;SDS011;65928;53.936;27.540;2024-02-14T12:09:06;8.80;;;5.70;;
76608;SDS011;65928;53.936;27.540;2024-02-14T12:11:35;9.98;;;5.00;;
76608;SDS011;65928;53.936;27.540;2024-02-14T12:14:06;9.13;;;6.60;;
76608;SDS011;65928;53.936;27.540;2024-02-14T12:16:36;8.52;;;5.05;;
76608;SDS011;65928;53.936;27.540;2024-02-14T12:19:05;10.80;;;7.72;;
76608;SDS011;65928;53.936;27.540;2024-02-14T12:21:37;7.65;;;6.03;;
76608;SDS011;65928;53.936;27.540;2024-02-14T12:24:04;12.98;;;7.78;;
76608;SDS011;65928;53.936;27.540;2024-02-14T12:26:32;12.18;;;8.38;;
76608;SDS011;65928;53.936;27.540;2024-02-14T12:29:00;8.93;;;4.82;;
76608;SDS011;65928;53.936;27.540;2024-02-14T12:31:27;9.60;;;5.38;;
76608;SDS011;65928;53.936;27.540;2024-02-14T12:33:52;7.35;;;3.83;;
76608;SDS011;65928;53.936;27.540;2024-02-14T12:36:20;4.82;;;3.35;;
76608;SDS011;65928;53.936;27.540;2024-02-14T12:38:46;8.25;;;4.47;;
76608;SDS011;65928;53.936;27.540;2024-02-14T12:41:11;7.20;;;3.30;;
76608;SDS011;65928;53.936;27.540;2024-02-14T12:43:36;5.35;;;3.05;;
76608;SDS011;65928;53.936;27.540;2024-02-14T12:46:02;7.95;;;3.72;;
76608;SDS011;65928;53.936;27.540;2024-02-14T12:48:29;6.85;;;4.22;;
76608;SDS011;65928;53.936;27.540;2024-02-14T12:50:55;6.53;;;3.90;;
76608;SDS011;65928;53.936;27.540;2024-02-14T12:53:21;9.25;;;5.07;;
76608;SDS011;65928;53.936;27.540;2024-02-14T12:55:47;7.20;;;5.00;;
76608;SDS011;65928;53.936;27.540;2024-02-14T12:58:12;8.10;;;5.18;;
76608;SDS011;65928;53.936;27.540;2024-02-14T13:00:38;9.25;;;5.15;;
76608;SDS011;65928;53.936;27.540;2024-02-14T13:03:03;6.82;;;3.22;;
76608;SDS011;65928;53.936;27.540;2024-02-14T13:05:30;12.50;;;8.05;;
76608;SDS011;65928;53.936;27.540;2024-02-14T13:07:55;14.40;;;8.65;;
76608;SDS011;65928;53.936;27.540;2024-02-14T13:10:21;8.43;;;5.95;;
76608;SDS011;65928;53.936;27.540;2024-02-14T13:12:47;12.35;;;7.40;;
76608;SDS011;65928;53.936;27.540;2024-02-14T13:15:12;7.78;;;5.32;;
76608;SDS011;65928;53.936;27.540;2024-02-14T13:17:38;5.60;;;3.78;;
76608;SDS011;65928;53.936;27.540;2024-02-14T13:20:03;6.05;;;3.22;;
76608;SDS011;65928;53.936;27.540;2024-02-14T13:22:29;5.13;;;3.40;;
76608;SDS011;65928;53.936;27.540;2024-02-14T13:24:54;8.13;;;5.32;;
76608;SDS011;65928;53.936;27.540;2024-02-14T13:27:21;12.27;;;7.07;;
76608;SDS011;65928;53.936;27.540;2024-02-14T13:29:48;8.15;;;4.95;;
76608;SDS011;65928;53.936;27.540;2024-02-14T13:32:14;6.32;;;4.53;;
76608;SDS011;65928;53.936;27.540;2024-02-14T13:34:40;7.20;;;4.90;;
76608;SDS011;65928;53.936;27.540;2024-02-14T13:37:05;8.40;;;6.07;;
76608;SDS011;65928;53.936;27.540;2024-02-14T13:39:31;7.25;;;4.15;;
76608;SDS011;65928;53.936;27.540;2024-02-14T13:41:56;5.82;;;3.95;;
76608;SDS011;65928;53.936;27.540;2024-02-14T13:44:24;6.03;;;3.92;;
76608;SDS011;65928;53.936;27.540;2024-02-14T13:46:50;7.85;;;4.50;;
76608;SDS011;65928;53.936;27.540;2024-02-14T13:49:15;3.63;;;2.22;;
76608;SDS011;65928;53.936;27.540;2024-02-14T13:51:46;9.73;;;5.82;;
76608;SDS011;65928;53.936;27.540;2024-02-14T13:54:18;9.45;;;4.95;;
76608;SDS011;65928;53.936;27.540;2024-02-14T13:56:44;3.30;;;2.13;;
76608;SDS011;65928;53.936;27.540;2024-02-14T13:59:10;11.07;;;6.05;;
76608;SDS011;65928;53.936;27.540;2024-02-14T14:01:35;7.78;;;4.47;;
76608;SDS011;65928;53.936;27.540;2024-02-14T14:04:02;11.95;;;7.65;;
76608;SDS011;65928;53.936;27.540;2024-02-14T14:06:28;7.78;;;4.13;;
76608;SDS011;65928;53.936;27.540;2024-02-14T14:08:54;9.85;;;5.18;;
76608;SDS011;65928;53.936;27.540;2024-02-14T14:11:19;4.53;;;2.30;;
76608;SDS011;65928;53.936;27.540;2024-02-14T14:13:45;4.97;;;1.98;;
76608;SDS011;65928;53.936;27.540;2024-02-14T14:16:10;3.65;;;2.30;;
76608;SDS011;65928;53.936;27.540;2024-02-14T14:18:36;7.20;;;5.18;;
76608;SDS011;65928;53.936;27.540;2024-02-14T14:21:01;7.60;;;4.85;;
76608;SDS011;65928;53.936;27.540;2024-02-14T14:23:27;5.88;;;3.90;;